createdAt,value
2022-08-17T00:00:51.865Z,100490.44
2022-08-17T00:06:13.666Z,100465.97
2022-08-17T00:11:22.298Z,100466.66
2022-08-17T00:16:50.415Z,100453.72
2022-08-17T00:22:32.107Z,100452.41
2022-08-17T00:27:18.678Z,100445.22
2022-08-17T00:33:11.876Z,100442.41
2022-08-17T00:37:42.136Z,100441.38
2022-08-17T00:42:45.612Z,100445.78
2022-08-17T00:47:47.657Z,100430.00
2022-08-17T00:52:56.263Z,100435.09
2022-08-17T00:58:01.598Z,100442.34
2022-08-17T01:03:15.119Z,100429.41
2022-08-17T01:08:19.649Z,100421.19
2022-08-17T01:13:21.967Z,100425.16
2022-08-17T01:18:24.153Z,100382.59
2022-08-17T01:23:28.462Z,100410.34
2022-08-17T01:28:52.799Z,100417.16
2022-08-17T01:33:54.443Z,100413.34
2022-08-17T01:38:56.139Z,100416.00
2022-08-17T01:44:02.703Z,100414.38
2022-08-17T01:49:09.913Z,100410.22
2022-08-17T01:54:14.817Z,100394.34
2022-08-17T01:59:19.797Z,100410.09
2022-08-17T02:04:21.747Z,100411.13
2022-08-17T02:09:29.505Z,100391.66
2022-08-17T02:14:31.425Z,100391.91
2022-08-17T02:19:32.979Z,100403.19
2022-08-17T02:24:59.869Z,100392.69
2022-08-17T02:29:58.312Z,100400.03
2022-08-17T02:35:00.426Z,100412.41
2022-08-17T02:40:02.717Z,100387.56
2022-08-17T02:45:07.958Z,100400.50
2022-08-17T02:50:12.130Z,100398.19
2022-08-17T02:55:24.022Z,100412.47
2022-08-17T03:00:29.948Z,100401.78
2022-08-17T03:05:33.696Z,100396.78
2022-08-17T03:10:35.168Z,100393.91
2022-08-17T03:15:36.686Z,100388.44
2022-08-17T03:20:42.292Z,100375.75
2022-08-17T03:25:46.315Z,100383.75
2022-08-17T03:30:47.789Z,100375.47
2022-08-17T03:35:49.404Z,100392.06
2022-08-17T03:40:56.488Z,100391.91
2022-08-17T03:46:33.800Z,100368.09
2022-08-17T03:51:55.618Z,100386.38
2022-08-17T03:57:09.743Z,100372.16
2022-08-17T04:02:18.773Z,100374.00
2022-08-17T04:07:21.899Z,100363.47
2022-08-17T04:12:24.325Z,100358.94
2022-08-17T04:17:28.729Z,100399.28
2022-08-17T04:22:34.238Z,100393.25
2022-08-17T04:27:36.218Z,100391.16
2022-08-17T04:33:06.143Z,100412.84
2022-08-17T04:38:11.873Z,100406.31
2022-08-17T04:43:16.483Z,100420.16
2022-08-17T04:48:20.754Z,100416.59
2022-08-17T04:53:22.203Z,100397.69
2022-08-17T04:58:23.667Z,100413.19
2022-08-17T05:03:25.093Z,100424.56
2022-08-17T05:08:26.684Z,100406.84
2022-08-17T05:13:32.234Z,100436.66
2022-08-17T05:18:33.709Z,100436.56
2022-08-17T05:23:43.013Z,100415.63
2022-08-17T05:28:45.037Z,100421.63
2022-08-17T05:33:47.557Z,100408.44
2022-08-17T05:38:49.012Z,100413.81
2022-08-17T05:43:54.377Z,100411.09
2022-08-17T05:49:03.505Z,100406.34
2022-08-17T05:54:56.744Z,100402.59
2022-08-17T06:00:04.539Z,100404.00
2022-08-17T06:05:17.273Z,100394.16
2022-08-17T06:10:43.883Z,100402.06
2022-08-17T06:15:59.483Z,100402.06
2022-08-17T06:21:05.612Z,100403.41
2022-08-17T06:26:17.459Z,100397.13
2022-08-17T06:31:23.323Z,100437.94
2022-08-17T06:36:33.927Z,100423.50
2022-08-17T06:42:54.084Z,100418.31
2022-08-17T06:47:59.498Z,100416.91
2022-08-17T06:53:25.758Z,100445.53
2022-08-17T06:58:31.817Z,100437.16
2022-08-17T07:03:42.401Z,100447.84
2022-08-17T07:09:01.047Z,100456.88
2022-08-17T07:14:31.215Z,100468.34
2022-08-17T07:19:35.046Z,100466.06
2022-08-17T07:24:59.553Z,100465.34
2022-08-17T07:30:16.075Z,100463.34
2022-08-17T07:35:37.602Z,100467.22
2022-08-17T07:40:57.993Z,100483.94
2022-08-17T07:46:21.653Z,100488.97
2022-08-17T07:51:27.703Z,100495.16
2022-08-17T07:56:55.761Z,100488.72
2022-08-17T08:02:06.655Z,100496.28
2022-08-17T08:07:14.059Z,100486.81
2022-08-17T08:12:27.174Z,100483.84
2022-08-17T08:17:46.439Z,100493.16
2022-08-17T08:23:15.473Z,100481.44
2022-08-17T08:28:35.139Z,100491.97
2022-08-17T08:33:49.195Z,100470.59
2022-08-17T08:39:02.875Z,100490.56
2022-08-17T08:44:16.217Z,100483.56
2022-08-17T08:50:01.917Z,100482.50
2022-08-17T08:55:12.319Z,100472.66
2022-08-17T09:00:18.977Z,100498.97
2022-08-17T09:05:23.074Z,100502.59
2022-08-17T09:10:30.687Z,100499.03
2022-08-17T09:15:42.565Z,100496.59
2022-08-17T09:21:10.001Z,100513.75
2022-08-17T09:26:22.800Z,100510.59
2022-08-17T09:31:47.043Z,100496.19
2022-08-17T09:37:20.520Z,100496.38
2022-08-17T09:42:48.271Z,100496.50
2022-08-17T09:48:27.498Z,100500.00
2022-08-17T09:53:32.013Z,100496.47
2022-08-17T09:58:50.367Z,100485.66
2022-08-17T10:03:59.343Z,100490.97
2022-08-17T10:09:09.668Z,100506.75
2022-08-17T10:14:37.517Z,100513.25
2022-08-17T10:19:58.636Z,100522.47
2022-08-17T10:25:24.876Z,100523.53
2022-08-17T10:30:35.584Z,100532.34
2022-08-17T10:36:10.160Z,100529.56
2022-08-17T10:41:19.641Z,100541.25
2022-08-17T10:46:46.962Z,100547.09
2022-08-17T10:51:55.066Z,100543.78
2022-08-17T10:56:57.376Z,100557.66
2022-08-17T11:02:12.281Z,100572.41
2022-08-17T11:07:43.678Z,100577.16
2022-08-17T11:13:11.458Z,100581.66
2022-08-17T11:18:37.534Z,100589.44
2022-08-17T11:23:50.819Z,100586.56
2022-08-17T11:28:58.696Z,100571.19
2022-08-17T11:34:07.657Z,100563.22
2022-08-17T11:39:35.648Z,100540.50
2022-08-17T11:44:53.520Z,100546.47
2022-08-17T11:50:59.486Z,100550.91
2022-08-17T11:56:05.225Z,100548.25
2022-08-17T12:01:09.723Z,100545.25
2022-08-17T12:06:31.176Z,100563.38
2022-08-17T12:12:13.224Z,100572.56
2022-08-17T12:17:40.794Z,100576.69
2022-08-17T12:22:56.370Z,100567.81
2022-08-17T12:28:06.753Z,100563.47
2022-08-17T12:33:13.784Z,100583.00
2022-08-17T12:38:33.037Z,100586.50
2022-08-17T12:43:35.070Z,100568.38
2022-08-17T12:48:37.052Z,100591.34
2022-08-17T12:53:40.765Z,100588.81
2022-08-17T12:58:54.057Z,100589.50
2022-08-17T13:03:59.632Z,100593.34
2022-08-17T13:09:18.411Z,100580.56
2022-08-17T13:14:19.946Z,100575.69
2022-08-17T13:19:40.139Z,100561.81
2022-08-17T13:24:53.000Z,100576.16
2022-08-17T13:29:59.527Z,100579.31
2022-08-17T13:35:14.381Z,100567.75
2022-08-17T13:40:19.094Z,100572.31
2022-08-17T13:45:50.481Z,100573.38
2022-08-17T13:50:55.420Z,100565.00
2022-08-17T13:56:07.302Z,100573.91
2022-08-17T14:01:54.346Z,100570.63
2022-08-17T14:07:12.410Z,100580.81
2022-08-17T14:12:18.161Z,100587.09
2022-08-17T14:17:20.053Z,100574.03
2022-08-17T14:22:28.850Z,100581.47
2022-08-17T14:27:33.990Z,100581.44
2022-08-17T14:32:45.192Z,100558.53
2022-08-17T14:37:47.946Z,100572.75
2022-08-17T14:42:49.786Z,100585.25
2022-08-17T14:47:51.475Z,100574.97
2022-08-17T14:52:55.104Z,100587.69
2022-08-17T14:57:57.145Z,100572.22
2022-08-17T15:03:00.267Z,100572.09
2022-08-17T15:08:02.955Z,100572.97
2022-08-17T15:13:10.312Z,100568.72
2022-08-17T15:18:12.042Z,100558.84
2022-08-17T15:23:15.696Z,100557.16
2022-08-17T15:28:17.271Z,100550.47
2022-08-17T15:33:22.007Z,100555.56
2022-08-17T15:38:23.861Z,100537.72
2022-08-17T15:43:28.428Z,100528.06
2022-08-17T15:48:44.578Z,100543.34
2022-08-17T15:53:49.343Z,100541.88
2022-08-17T15:58:52.331Z,100533.91
2022-08-17T16:04:05.229Z,100546.56
2022-08-17T16:09:19.493Z,100534.56
2022-08-17T16:14:20.942Z,100532.00
2022-08-17T16:19:22.442Z,100524.38
2022-08-17T16:24:23.880Z,100537.94
2022-08-17T16:29:25.380Z,100563.28
2022-08-17T16:34:26.815Z,100558.59
2022-08-17T16:39:29.197Z,100565.16
2022-08-17T16:44:32.098Z,100564.28
2022-08-17T16:49:36.785Z,100571.88
2022-08-17T16:54:44.200Z,100592.56
2022-08-17T16:59:50.122Z,100584.38
2022-08-17T17:04:59.985Z,100591.75
2022-08-17T17:10:09.037Z,100579.22
2022-08-17T17:15:10.835Z,100589.47
2022-08-17T17:20:16.661Z,100591.03
2022-08-17T17:26:02.967Z,100587.03
2022-08-17T17:31:23.710Z,100581.66
2022-08-17T17:36:50.102Z,100572.97
2022-08-17T17:41:58.877Z,100587.91
2022-08-17T17:47:02.595Z,100594.72
2022-08-17T17:52:13.341Z,100590.47
2022-08-17T17:57:29.510Z,100597.94
2022-08-17T18:03:04.400Z,100609.66
2022-08-17T18:08:34.766Z,100612.59
2022-08-17T18:13:36.404Z,100610.53
2022-08-17T18:18:40.044Z,100629.69
2022-08-17T18:24:02.544Z,100625.13
2022-08-17T18:29:30.098Z,100634.56
2022-08-17T18:34:48.528Z,100618.66
2022-08-17T18:39:50.425Z,100631.72
2022-08-17T18:44:55.257Z,100623.66
2022-08-17T18:50:16.845Z,100636.03
2022-08-17T18:55:22.752Z,100640.31
2022-08-17T19:00:30.150Z,100654.00
2022-08-17T19:05:37.694Z,100646.50
2022-08-17T19:10:47.044Z,100659.22
2022-08-17T19:16:11.454Z,100667.53
2022-08-17T19:21:23.052Z,100669.03
2022-08-17T19:26:54.502Z,100677.97
2022-08-17T19:31:58.380Z,100666.31
2022-08-17T19:37:30.322Z,100684.03
2022-08-17T19:42:49.767Z,100672.09
2022-08-17T19:48:13.560Z,100663.31
2022-08-17T19:53:19.513Z,100672.63
2022-08-17T19:58:46.351Z,100675.41
2022-08-17T20:04:07.570Z,100673.22
2022-08-17T20:09:24.965Z,100672.56
2022-08-17T20:14:55.408Z,100676.22
2022-08-17T20:20:19.731Z,100695.22
2022-08-17T20:25:30.080Z,100713.84
2022-08-17T20:30:38.458Z,100697.50
2022-08-17T20:35:59.656Z,100709.34
2022-08-17T20:41:04.067Z,100710.72
2022-08-17T20:46:36.146Z,100704.91
2022-08-17T20:52:01.184Z,100689.91
2022-08-17T20:57:09.276Z,100707.94
2022-08-17T21:02:20.764Z,100714.69
2022-08-17T21:07:24.482Z,100718.63
2022-08-17T21:12:42.465Z,100707.31
2022-08-17T21:17:53.931Z,100704.66
2022-08-17T21:23:23.206Z,100712.16
2022-08-17T21:29:00.431Z,100712.16
2022-08-17T21:34:15.165Z,100717.91
2022-08-17T21:39:23.329Z,100715.25
2022-08-17T21:44:41.577Z,100729.59
2022-08-17T21:49:43.501Z,100730.75
2022-08-17T21:54:54.871Z,100727.56
2022-08-17T21:59:58.576Z,100723.09
2022-08-17T22:05:04.861Z,100736.97
2022-08-17T22:10:27.034Z,100741.13
2022-08-17T22:15:28.526Z,100741.47
2022-08-17T22:20:30.003Z,100731.69
2022-08-17T22:25:35.820Z,100734.19
2022-08-17T22:31:01.504Z,100739.03
2022-08-17T22:36:22.630Z,100742.94
2022-08-17T22:42:06.266Z,100744.25
2022-08-17T22:47:29.252Z,100747.00
2022-08-17T22:52:56.651Z,100733.72
2022-08-17T22:58:17.163Z,100736.59
2022-08-17T23:03:22.161Z,100732.41
2022-08-17T23:08:24.071Z,100721.09
2022-08-17T23:13:26.446Z,100736.41
2022-08-17T23:18:27.861Z,100738.25
2022-08-17T23:23:29.334Z,100733.50
2022-08-17T23:28:30.742Z,100728.72
2022-08-17T23:33:38.508Z,100730.16
2022-08-17T23:38:40.119Z,100724.13
2022-08-17T23:43:45.088Z,100734.56
2022-08-17T23:48:47.548Z,100741.66
2022-08-17T23:53:55.153Z,100729.25
2022-08-17T23:58:57.954Z,100752.97
